Have a Safe July 4th! 

Flight Track Log - Related Links

Times and Time Zones

All times are in EDT time to prevent confusion due to time zone crossing. See the N658FE flight status page for this flight to view local times or setup timezone preferences in your user account.

Time Position Orientation Groundspeed Altitude Reporting Facility
EDT Latitude Longitude Course Direction KTS MPH feet Rate Location/Type
Wed 05:24:52 AM 37.7140 -122.2650 235° Southwest 2,500  Level FlightAware ADS-B
Wed 05:25:02 AM 37.7070 -122.2730 222° Southwest 2,700 627 Climbing FlightAware ADS-B
Wed 05:25:17 AM 37.6930 -122.2810 204° Southwest 3,100 625 Climbing FlightAware ADS-B
Wed 05:25:22 AM 37.6850 -122.2820 186° South 3,300 620 Climbing FlightAware ADS-B
Wed 05:26:02 AM 37.6410 -122.2590 158° South 5,600 617 Climbing FlightAware ADS-B
Wed 05:26:12 AM 37.6320 -122.2470 133° Southeast 6,400 580 Climbing FlightAware ADS-B
Wed 05:26:22 AM 37.6240 -122.2360 133° Southeast 7,000 566 Climbing FlightAware ADS-B
Wed 05:26:57 AM 37.5910 -122.1910 133° Southeast 9,300 556 Climbing FlightAware ADS-B
Wed 05:27:37 AM 37.5520 -122.1360 132° Southeast 11,400 516 Climbing FlightAware ADS-B
Wed 05:28:22 AM 37.5020 -122.0650 132° Southeast 12,800 480 Climbing FlightAware ADS-B
Wed 05:29:02 AM 37.4490 -121.9910 132° Southeast 15,600 459 Climbing FlightAware ADS-B
Wed 05:29:42 AM 37.3940 -121.9160 133° Southeast 17,900 407 Climbing FlightAware ADS-B
Wed 05:30:27 AM 37.3340 -121.8310 132° Southeast 20,000 364 Climbing FlightAware ADS-B
Wed 05:31:07 AM 37.2750 -121.7500 132° Southeast 21,900 324 Climbing FlightAware ADS-B
Wed 05:31:47 AM 37.2160 -121.6670 132° Southeast 23,700 287 Climbing FlightAware ADS-B
Wed 05:32:32 AM 37.1490 -121.5750 132° Southeast 25,600 251 Climbing FlightAware ADS-B
Wed 05:33:12 AM 37.0890 -121.4920 132° Southeast 27,100 213 Climbing FlightAware ADS-B
Wed 05:33:57 AM 37.0190 -121.3970 133° Southeast 28,900 181 Climbing FlightAware ADS-B
Wed 05:34:37 AM 36.9550 -121.3080 132° Southeast 30,700 143 Climbing FlightAware ADS-B
Wed 05:35:17 AM 36.8950 -121.2260 132° Southeast 32,200 102 Climbing FlightAware ADS-B
Wed 05:36:02 AM 36.8240 -121.1230 131° Southeast 33,900 68 Climbing FlightAware ADS-B
Wed 05:36:42 AM 36.7800 -121.0260 120° Southeast 35,000 27 Climbing FlightAware ADS-B
Wed 05:37:52 AM 36.7060 -120.8660 120° Southeast 35,000  Level FlightAware ADS-B
Wed 05:38:37 AM 36.6500 -120.7460 120° Southeast 35,000  Level FlightAware ADS-B
Wed 05:39:17 AM 36.6050 -120.6500 120° Southeast 35,000  Level FlightAware ADS-B
Wed 05:39:57 AM 36.5600 -120.5540 120° Southeast 35,000  Level FlightAware ADS-B
Wed 05:40:42 AM 36.5080 -120.4440 120° Southeast 35,000  Level FlightAware ADS-B
Wed 05:41:22 AM 36.4640 -120.3490 120° Southeast 35,000  Level FlightAware ADS-B
Wed 05:42:07 AM 36.4120 -120.2410 121° Southeast 35,000  Level FlightAware ADS-B
Wed 05:42:47 AM 36.3660 -120.1440 120° Southeast 35,000  Level FlightAware ADS-B
Wed 05:43:32 AM 36.3160 -120.0390 121° Southeast 35,000  Level FlightAware ADS-B
Wed 05:44:12 AM 36.2710 -119.9440 120° Southeast 35,000  Level FlightAware ADS-B
Wed 05:44:57 AM 36.2170 -119.8320 121° Southeast 35,000  Level FlightAware ADS-B
Wed 05:45:37 AM 36.1740 -119.7400 120° Southeast 35,000  Level FlightAware ADS-B
Wed 05:46:17 AM 36.1290 -119.6480 121° Southeast 35,000  Level FlightAware ADS-B
Wed 05:47:02 AM 36.0760 -119.5390 121° Southeast 35,000  Level FlightAware ADS-B
Wed 05:47:42 AM 36.0280 -119.4400 121° Southeast 35,000  Level FlightAware ADS-B
Wed 05:48:27 AM 35.9780 -119.3370 121° Southeast 35,000  Level FlightAware ADS-B
Wed 05:49:07 AM 35.9310 -119.2410 121° Southeast 35,000  Level FlightAware ADS-B
Wed 05:49:47 AM 35.8840 -119.1430 121° Southeast 35,000  Level FlightAware ADS-B
Wed 05:50:32 AM 35.8320 -119.0380 121° Southeast 35,000  Level FlightAware ADS-B
Wed 05:51:12 AM 35.7860 -118.9440 121° Southeast 35,000  Level FlightAware ADS-B
Wed 05:51:52 AM 35.7380 -118.8480 122° Southeast 35,000  Level FlightAware ADS-B
Wed 05:52:37 AM 35.6850 -118.7390 121° Southeast 35,000  Level FlightAware ADS-B
Wed 05:53:17 AM 35.6430 -118.6390 117° Southeast 35,000  Level FlightAware ADS-B
Wed 05:54:02 AM 35.5960 -118.5330 119° Southeast 35,000  Level FlightAware ADS-B
Wed 05:54:37 AM 35.5590 -118.4520 119° Southeast 35,000  Level FlightAware ADS-B
Wed 05:55:22 AM 35.5080 -118.3390 119° Southeast 35,000  Level FlightAware ADS-B
Wed 05:56:07 AM 35.4570 -118.2250 119° Southeast 35,000  Level FlightAware ADS-B
Wed 05:56:47 AM 35.4150 -118.1330 119° Southeast 35,000  Level FlightAware ADS-B
Wed 05:57:32 AM 35.3660 -118.0250 119° Southeast 35,000  Level FlightAware ADS-B
Wed 05:58:12 AM 35.3240 -117.9340 119° Southeast 35,000  Level FlightAware ADS-B
Wed 05:58:52 AM 35.2800 -117.8380 119° Southeast 35,000  Level FlightAware ADS-B
Wed 05:59:37 AM 35.2300 -117.7290 119° Southeast 35,000  Level FlightAware ADS-B
Wed 06:00:17 AM 35.1860 -117.6320 119° Southeast 35,000  Level FlightAware ADS-B
Wed 06:00:57 AM 35.1390 -117.5310 120° Southeast 35,000  Level FlightAware ADS-B
Wed 06:01:42 AM 35.0910 -117.4260 119° Southeast 35,000  Level FlightAware ADS-B
Wed 06:02:22 AM 35.0470 -117.3320 120° Southeast 35,000  Level FlightAware ADS-B
Wed 06:03:07 AM 34.9970 -117.2260 120° Southeast 35,000  Level FlightAware ADS-B
Wed 06:03:47 AM 34.9510 -117.1280 120° Southeast 35,000  Level FlightAware ADS-B
Wed 06:04:27 AM 34.9060 -117.0320 120° Southeast 35,000  Level FlightAware ADS-B
Wed 06:05:12 AM 34.8570 -116.9260 119° Southeast 35,000  Level FlightAware ADS-B
Wed 06:05:52 AM 34.8120 -116.8310 120° Southeast 35,000  Level FlightAware ADS-B
Wed 06:06:37 AM 34.7610 -116.7230 120° Southeast 35,000  Level FlightAware ADS-B
Wed 06:07:17 AM 34.7170 -116.6300 120° Southeast 35,000  Level FlightAware ADS-B
Wed 06:07:57 AM 34.6710 -116.5320 120° Southeast 35,000  Level FlightAware ADS-B
Wed 06:08:37 AM 34.6240 -116.4350 120° Southeast 35,000  Level FlightAware ADS-B
Wed 06:09:22 AM 34.5790 -116.3400 120° Southeast 35,000  Level FlightAware ADS-B
Wed 06:10:02 AM 34.5270 -116.2320 120° Southeast 35,000  Level FlightAware ADS-B
Wed 06:10:47 AM 34.4750 -116.1240 120° Southeast 35,000  Level FlightAware ADS-B
Wed 06:11:27 AM 34.4290 -116.0280 120° Southeast 35,000  Level FlightAware ADS-B
Wed 06:12:12 AM 34.3790 -115.9260 121° Southeast 35,000  Level FlightAware ADS-B
Wed 06:12:52 AM 34.3320 -115.8280 120° Southeast 35,000  Level FlightAware ADS-B
Wed 06:13:37 AM 34.2810 -115.7230 120° Southeast 35,000  Level FlightAware ADS-B
Wed 06:14:32 AM 34.2190 -115.5950 120° Southeast 35,000  Level FlightAware ADS-B
Wed 06:15:12 AM 34.1740 -115.5040 121° Southeast 35,000  Level FlightAware ADS-B
Wed 06:15:52 AM 34.1260 -115.4070 121° Southeast 35,000  Level FlightAware ADS-B
Wed 06:16:44 AM 34.0694 -115.2886 121° Southeast 487 560 35,000  Level Albuquerque Center
Wed 06:17:44 AM 34.0033 -115.1578 121° Southeast 485 558 35,000  Level Albuquerque Center
Wed 06:18:45 AM 33.9350 -115.0186 121° Southeast 483 556 35,000  Level Albuquerque Center
Wed 06:19:02 AM 33.9319 -115.0125 121° Southeast 485 558 35,000  Level Los Angeles Center
Wed 06:20:03 AM 33.8494 -114.8483 121° Southeast 478 550 35,000 -149 Level Los Angeles Center
Wed 06:21:03 AM 33.7797 -114.7103 121° Southeast 480 552 34,700 -300 Descending Los Angeles Center
Wed 06:26:32 AM 33.6670 -113.8670 121° Southeast 26,100 -1,568 Descending FlightAware ADS-B
Wed 06:27:02 AM 33.6590 -113.7940 97° East 25,300 -1,600 Descending FlightAware ADS-B
Wed 06:27:52 AM 33.6410 -113.6490 98° East 23,600 -2,040 Descending FlightAware ADS-B
Wed 06:28:27 AM 33.6300 -113.5540 98° East 22,400 -2,057 Descending FlightAware ADS-B
Wed 06:29:12 AM 33.6170 -113.4410 98° East 20,900 -2,000 Descending FlightAware ADS-B
Wed 06:29:57 AM 33.6030 -113.3360 99° East 19,500 -1,867 Descending FlightAware ADS-B
Wed 06:30:37 AM 33.5920 -113.2400 98° East 18,300 -1,800 Descending FlightAware ADS-B
Wed 06:31:12 AM 33.5820 -113.1560 98° East 17,200 -1,886 Descending FlightAware ADS-B
Wed 06:31:52 AM 33.5690 -113.0570 99° East 16,000 -1,800 Descending FlightAware ADS-B
Wed 06:32:32 AM 33.5580 -112.9660 98° East 14,900 -1,650 Descending FlightAware ADS-B
Wed 06:33:17 AM 33.5420 -112.8540 100° East 13,600 -1,733 Descending FlightAware ADS-B
Wed 06:33:32 AM 33.5280 -112.8180 115° Southeast 13,100 -2,000 Descending FlightAware ADS-B
Wed 06:34:12 AM 33.4920 -112.7440 120° Southeast 12,100 -1,500 Descending FlightAware ADS-B
Wed 06:34:57 AM 33.4520 -112.6620 120° Southeast 11,500 -800 Descending FlightAware ADS-B
Wed 06:35:37 AM 33.4320 -112.5980 111° Southeast 11,000 -750 Descending FlightAware ADS-B
Wed 06:36:17 AM 33.4290 -112.5290 93° East 9,800 -1,800 Descending FlightAware ADS-B
Wed 06:37:02 AM 33.4300 -112.4260 89° East 7,400 -3,200 Descending FlightAware ADS-B
Wed 06:37:32 AM 33.4320 -112.3790 87° East 6,100 -2,600 Descending FlightAware ADS-B
Wed 06:37:57 AM 33.4330 -112.3380 88° East 5,700 -960 Descending FlightAware ADS-B
Wed 06:38:42 AM 33.4310 -112.2730 92° East 5,300 -533 Descending FlightAware ADS-B
Wed 06:39:02 AM 33.4300 -112.2450 92° East 4,900 -1,200 Descending FlightAware ADS-B
Wed 06:39:37 AM 33.4310 -112.1990 88° East 4,000 -1,543 Descending FlightAware ADS-B
Wed 06:40:07 AM 33.4310 -112.1690 90° East 3,500 -1,000 Descending FlightAware ADS-B
Wed 06:40:27 AM 33.4310 -112.1450 90° East 3,100 -1,200 Descending FlightAware ADS-B
Wed 06:41:02 AM 33.4310 -112.1170 90° East 2,700 -686 Descending FlightAware ADS-B
Wed 06:41:07 AM 33.4310 -112.1120 90° East 2,600 -1,200 Descending FlightAware ADS-B
Wed 06:41:37 AM 33.4310 -112.0890 90° East 2,300 -600 Descending FlightAware ADS-B
Wed 06:42:12 AM 33.4310 -112.0640 90° East 1,800 -857 Descending FlightAware ADS-B
Wed 06:42:37 AM 33.4310 -112.0460 90° East 1,600 -480 Descending FlightAware ADS-B
Wed 06:42:52 AM 33.4310 -112.0360 90° East 1,400 -800 Descending FlightAware ADS-B
Wed 06:45:00 AM 33.4343 -112.0116 90° East  Level Estimated
Wed 06:46:00 AM 33.4343 -112.0116 292° West  Level Estimated

Login

Don't have an account? Register now (free) for customized features, flight alerts, and more!